Afton, TX

10:04 PM CST on February 26, 2015 (GMT -0600)
Afton | Change Station
CLOSE
Current Station
Personal Weather Station
Location: Afton, TX
Elevation: 2559 ft
Nearby Weather Stations
Active Advisory: Winter Weather Advisory

Elev 2559 ft 33.77 °N, 100.81 °W | Updated 4 minutes ago

Overcast
Overcast
24.9 °F
Feels Like 18 °F
N
6.0
Wind Variable Wind from North
Gusts 11.0 mph

Today
High -- | Low -- °F
--% Chance of Precip.
Yesterday
High -- | Low -- °F
Precip. -- in
7:15 AM 6:36 PM
Waxing Gibbous, 65% visible
Pressure 30.48 in
Visibility 10.0 miles
Clouds Overcast 7000 ft
Windchill 18 °F
Dew Point 13 °F
Humidity 59%
Rainfall 0.04 in
Snow Depth Not available.
UV 0.0 out of 12
Pollen 3.60 out of 12
Air Quality Not available.
Flu Activity Not available.
METAR KCDS 270353Z AUTO 06011KT 10SM OVC070 M03/M17 A3043 RMK AO2 SLP321 T10281167

More Conditions Fewer Conditions

Pressure 30.48 in
Visibility 10.0 miles
Clouds Overcast 7000 ft
Windchill 18 °F
Dew Point 13 °F
Humidity 59%
Rainfall 0.04 in
Snow Depth Not available.
UV 0.0 out of 12
Pollen 3.60 out of 12
Air Quality Not available.
Flu Activity Not available.
METAR KCDS 270353Z AUTO 06011KT 10SM OVC070 M03/M17 A3043 RMK AO2 SLP321 T10281167

More Conditions Fewer Conditions

10-Day Weather Forecast

Almanac

Astronomy

Feb. 26, 2015 Rise Set
Actual Time
Civil Twilight
Nautical Twilight
Astronomical Twilight
Moon
Length of Visible Light
Length of Day
Tomorrow will be .
, % of the Moon is Illuminated

Today's Extremes

State Highs State Lows

Community

WunderPhotos

Upload Photos

1,800,609 photos uploaded!

WunderBlogs® & News

Nearby

Air Quality

  Air Quality AQ Index Pollutant
Not available.

Snow Depth

Station Depth Elevation

Earthquake Activity

City Distance Mag. Time & Date
Minimum magnitude displayed is 2.5.

Coastal Water Temperatures

Place Temperature

Nearby Weather Stations

Winter Weather Advisory
Statement as of 3:16 PM CST on February 26, 2015

... Winter Weather Advisory in effect from 3 am to 3 PM CST
Friday...

The National Weather Service in Lubbock has issued a Winter
Weather Advisory for snow... which is in effect from 3 am to 3 PM
CST Friday.

* Timing... late tonight to mid afternoon Friday.

* Snowfall... 1 to 3 inches with locally higher amounts. The
heaviest amounts are most likely to fall across the
southeastern Texas Panhandle while the lightest amounts are most
likely to occur in the southern rolling plains.

* Main impact... snow covered and icy roadways will result in
hazardous travel conditions.

Precautionary/preparedness actions...

A Winter Weather Advisory for snow means that periods of snow
will cause primarily travel difficulties. Be prepared for snow
covered roads and limited visibilities... and use caution while
driving.